Aviation Digital Data Service (ADDS)

Output produced by METARs form (1025 UTC 27 September 2016)
found at http://www.aviationweather.gov/adds/metars/
 
KLNS 271012Z 27004KT 4SM BR BKN007 17/17 A2995 RMK AO2 T01670167
KLNS 270538Z 2706/2806 28004KT 4SM -RA BR OVC015 
     FM270730 28003KT 4SM BR OVC007 
     FM271500 28005KT P6SM SKC